Time;durP1;ratioP1;P1;durP2;ratioP2;P2;SDS_P1;SDS_P2;PMS_P1;PMS_P2;Temp;Humidity;BMP_temperature;BMP_pressure;BME280_temperature;BME280_humidity;BME280_pressure;Samples;Min_cycle;Max_cycle;Signal;HPM_P1;HPM_P2
2021/05/30 00:00:32;;;;;;;13.32;7.28;;;358.60;2329.60;;;;;;4995642;28;20077;-83
2021/05/30 00:02:59;;;;;;;11.98;7.70;;;358.70;2329.60;;;;;;4995191;28;20022;-83
2021/05/30 00:05:25;;;;;;;14.38;8.57;;;358.70;2329.60;;;;;;4995637;28;20034;-83
2021/05/30 00:07:57;;;;;;;12.88;8.77;;;358.60;2329.60;;;;;;4995269;28;20046;-84
2021/05/30 00:10:25;;;;;;;11.63;8.40;;;358.60;2329.60;;;;;;4995128;28;20490;-85
2021/05/30 00:12:52;;;;;;;15.07;7.53;;;358.60;2329.60;;;;;;4995354;28;20026;-84
2021/05/30 00:15:21;;;;;;;16.95;7.68;;;333.60;2329.60;;;;;;4995625;28;20030;-84
2021/05/30 00:17:56;;;;;;;13.82;7.20;;;358.40;2329.60;;;;;;4995024;28;20113;-83
2021/05/30 00:20:24;;;;;;;10.55;7.22;;;358.40;2329.60;;;;;;4995235;28;20030;-82
2021/05/30 00:22:50;;;;;;;10.13;6.97;;;333.70;2329.60;;;;;;4995205;28;20032;-83
2021/05/30 00:25:16;;;;;;;10.07;7.43;;;358.50;2329.60;;;;;;4995003;28;20027;-83
2021/05/30 00:27:42;;;;;;;14.13;7.03;;;358.50;2329.60;;;;;;4995013;28;20057;-83
2021/05/30 00:30:09;;;;;;;12.25;7.25;;;358.50;2329.60;;;;;;5011182;28;20019;-83
2021/05/30 00:32:36;;;;;;;10.00;6.82;;;358.50;2329.60;;;;;;4994627;28;20027;-84
2021/05/30 00:35:02;;;;;;;13.32;7.53;;;358.50;2329.60;;;;;;4994959;28;20029;-84
2021/05/30 00:37:28;;;;;;;10.15;7.20;;;358.50;2329.60;;;;;;4994643;28;20027;-82
2021/05/30 00:39:56;;;;;;;11.90;6.93;;;358.40;2329.60;;;;;;4994251;28;20034;-84
2021/05/30 00:42:24;;;;;;;14.95;10.48;;;358.40;2329.60;;;;;;4997012;28;20026;-84
2021/05/30 00:44:51;;;;;;;13.98;7.80;;;358.50;2329.60;;;;;;4996380;28;20062;-84
2021/05/30 00:47:18;;;;;;;14.38;7.53;;;358.50;2329.60;;;;;;5003736;28;20031;-84
2021/05/30 00:49:44;;;;;;;9.65;6.30;;;358.40;2329.60;;;;;;5011339;28;20169;-83
2021/05/30 00:52:10;;;;;;;9.57;6.95;;;358.40;2329.60;;;;;;5001552;28;20033;-84
2021/05/30 00:54:39;;;;;;;13.45;6.75;;;333.70;2329.60;;;;;;4994480;28;20042;-84
2021/05/30 00:57:11;;;;;;;10.43;6.95;;;333.60;2329.60;;;;;;4994528;28;20077;-83
2021/05/30 00:59:41;;;;;;;8.40;6.20;;;333.60;2329.60;;;;;;4994093;28;20050;-84
2021/05/30 01:02:08;;;;;;;11.68;6.00;;;333.60;2329.60;;;;;;4994525;28;20030;-85
2021/05/30 01:04:34;;;;;;;9.23;6.10;;;333.60;2329.60;;;;;;4994406;28;20393;-85
2021/05/30 01:07:02;;;;;;;8.50;6.05;;;333.70;2329.60;;;;;;4993873;28;20026;-83
2021/05/30 01:09:32;;;;;;;8.25;5.82;;;333.60;2329.60;;;;;;4994125;28;20030;-85
2021/05/30 01:11:59;;;;;;;12.63;6.32;;;333.70;2329.60;;;;;;4994131;28;20026;-84
2021/05/30 01:14:25;;;;;;;11.25;6.72;;;333.40;2329.60;;;;;;4993816;28;20018;-84
2021/05/30 01:16:52;;;;;;;8.50;6.57;;;333.70;2329.60;;;;;;4994170;28;20034;-85
2021/05/30 01:19:21;;;;;;;11.20;7.22;;;333.50;2329.60;;;;;;4994068;28;20061;-84
2021/05/30 01:21:48;;;;;;;9.60;6.07;;;308.10;2304.00;;;;;;4993797;28;20030;-84
2021/05/30 01:24:39;;;;;;;10.50;5.90;;;333.60;2329.60;;;;;;4995076;28;20557;-84
2021/05/30 01:27:05;;;;;;;9.80;5.80;;;333.70;2329.60;;;;;;4993621;28;20122;-84
2021/05/30 01:29:34;;;;;;;8.95;6.43;;;333.60;2329.60;;;;;;4993913;28;20077;-84
2021/05/30 01:32:08;;;;;;;13.80;6.80;;;333.70;2329.60;;;;;;5010163;28;20528;-84
2021/05/30 01:34:41;;;;;;;11.85;6.13;;;333.70;2329.60;;;;;;4994920;28;20049;-85
2021/05/30 01:37:09;;;;;;;10.32;6.47;;;333.60;2329.60;;;;;;4993669;28;20026;-84
2021/05/30 01:39:37;;;;;;;13.43;6.93;;;333.70;2329.60;;;;;;5009822;28;20054;-84
2021/05/30 01:42:06;;;;;;;11.52;6.25;;;333.60;2329.60;;;;;;4992884;28;20062;-84
2021/05/30 01:44:32;;;;;;;9.13;6.40;;;333.60;2329.60;;;;;;4993502;28;20053;-84
2021/05/30 01:47:01;;;;;;;9.38;6.00;;;333.70;2329.60;;;;;;4993503;28;20026;-83
2021/05/30 01:49:28;;;;;;;9.88;6.05;;;333.70;2329.60;;;;;;4989816;28;20029;-83
2021/05/30 01:51:57;;;;;;;11.48;6.05;;;358.40;2329.60;;;;;;4993076;28;20474;-85
2021/05/30 01:54:26;;;;;;;7.53;6.35;;;333.50;2329.60;;;;;;4993486;28;20512;-84
2021/05/30 01:56:56;;;;;;;11.63;5.93;;;333.50;2329.60;;;;;;4993384;28;20049;-83
2021/05/30 01:59:25;;;;;;;12.73;6.40;;;333.60;2329.60;;;;;;4993100;28;20493;-83
2021/05/30 02:01:54;;;;;;;8.60;6.40;;;333.70;2329.60;;;;;;4992974;28;20034;-84
2021/05/30 02:04:24;;;;;;;12.63;6.55;;;333.70;2329.60;;;;;;4992595;28;20026;-83
2021/05/30 02:06:51;;;;;;;9.82;5.93;;;333.70;2329.60;;;;;;4993178;28;20461;-82
2021/05/30 02:09:18;;;;;;;10.15;6.07;;;333.70;2329.60;;;;;;4992962;28;20145;-84
2021/05/30 02:11:44;;;;;;;10.20;5.95;;;333.60;2329.60;;;;;;4993038;28;20430;-83
2021/05/30 02:14:12;;;;;;;10.05;6.88;;;333.30;2329.60;;;;;;4993427;28;20037;-83
2021/05/30 02:16:39;;;;;;;9.52;5.90;;;333.20;2329.60;;;;;;4992870;28;20391;-84
2021/05/30 02:19:05;;;;;;;11.23;6.57;;;333.10;2329.60;;;;;;4993010;28;20532;-84
2021/05/30 02:22:08;;;;;;;13.23;6.75;;;333.20;2329.60;;;;;;4992608;28;20026;-83
2021/05/30 02:24:37;;;;;;;11.18;5.95;;;333.20;2329.60;;;;;;4989860;28;20536;-84
2021/05/30 02:27:13;;;;;;;13.98;7.28;;;333.20;2329.60;;;;;;4992869;28;20487;-84
2021/05/30 02:29:47;;;;;;;11.00;6.43;;;333.20;2329.60;;;;;;4992740;28;20389;-84
2021/05/30 02:32:39;;;;;;;11.60;5.88;;;333.40;2329.60;;;;;;4993958;28;20415;-83
2021/05/30 02:35:11;;;;;;;8.85;5.88;;;333.50;2329.60;;;;;;4993024;28;20019;-83
2021/05/30 02:37:40;;;;;;;7.17;5.70;;;333.60;2329.60;;;;;;4992671;28;20073;-84
2021/05/30 02:40:12;;;;;;;10.38;6.70;;;333.50;2329.60;;;;;;4992949;28;20350;-83
2021/05/30 02:43:22;;;;;;;10.15;6.25;;;333.60;2329.60;;;;;;4994312;28;20030;-84
2021/05/30 02:45:51;;;;;;;7.90;5.70;;;333.70;2329.60;;;;;;4997613;28;20038;-84
2021/05/30 02:48:18;;;;;;;9.30;5.57;;;333.70;2329.60;;;;;;4993747;28;20109;-84
2021/05/30 02:50:57;;;;;;;9.35;5.63;;;358.40;2329.60;;;;;;4992529;28;20026;-82
2021/05/30 02:53:23;;;;;;;13.60;6.13;;;358.40;2329.60;;;;;;4992864;28;20117;-83
2021/05/30 02:55:52;;;;;;;9.15;5.80;;;333.70;2329.60;;;;;;4992727;28;20113;-84
2021/05/30 02:58:18;;;;;;;9.95;5.97;;;333.60;2329.60;;;;;;4992177;28;20054;-84
2021/05/30 03:00:45;;;;;;;10.93;5.60;;;333.70;2329.60;;;;;;4992675;28;20022;-82
2021/05/30 03:03:15;;;;;;;7.57;5.85;;;358.40;2329.60;;;;;;4992612;28;20061;-83
2021/05/30 03:05:41;;;;;;;9.27;6.60;;;333.50;2329.60;;;;;;4992321;28;20034;-84
2021/05/30 03:08:07;;;;;;;9.57;6.40;;;333.50;2329.60;;;;;;4992494;28;20078;-84
2021/05/30 03:10:33;;;;;;;12.20;6.10;;;333.60;2329.60;;;;;;4992682;28;20058;-84
2021/05/30 03:13:02;;;;;;;13.93;6.43;;;333.60;2329.60;;;;;;4992398;28;20044;-84
2021/05/30 03:15:30;;;;;;;9.88;6.20;;;333.50;2329.60;;;;;;4992753;28;20145;-83
2021/05/30 03:17:56;;;;;;;9.32;6.80;;;333.60;2329.60;;;;;;4996299;28;20069;-84
2021/05/30 03:20:27;;;;;;;9.77;6.43;;;333.50;2329.60;;;;;;4997217;28;20026;-84
2021/05/30 03:22:57;;;;;;;9.65;5.82;;;333.50;2329.60;;;;;;4996107;28;20034;-83
2021/05/30 03:28:13;;;;;;;10.48;6.68;;;333.50;2329.60;;;;;;4992578;28;20413;-83
2021/05/30 03:30:42;;;;;;;13.07;7.63;;;333.60;2329.60;;;;;;4996150;28;20474;-84
2021/05/30 03:33:22;;;;;;;11.00;7.13;;;333.70;2329.60;;;;;;4995821;28;20034;-84
2021/05/30 03:35:49;;;;;;;12.70;8.30;;;333.50;2329.60;;;;;;4995846;28;20045;-83
2021/05/30 03:38:18;;;;;;;9.75;6.03;;;333.40;2329.60;;;;;;4995848;28;20482;-83
2021/05/30 03:40:49;;;;;;;10.45;5.97;;;333.50;2329.60;;;;;;4995483;28;20473;-83
2021/05/30 03:43:23;;;;;;;8.70;6.40;;;333.60;2329.60;;;;;;4997113;28;20105;-83
2021/05/30 03:45:58;;;;;;;8.93;6.85;;;333.70;2329.60;;;;;;4995846;28;20033;-83
2021/05/30 03:48:30;;;;;;;11.60;6.45;;;333.40;2329.60;;;;;;4994977;28;20030;-84
2021/05/30 03:51:01;;;;;;;9.82;6.03;;;333.70;2329.60;;;;;;4995834;28;20501;-84
2021/05/30 03:53:27;;;;;;;11.55;6.30;;;358.40;2329.60;;;;;;4995374;28;20532;-82
2021/05/30 03:55:53;;;;;;;9.98;6.80;;;358.50;2329.60;;;;;;4995627;28;20117;-83
2021/05/30 03:58:20;;;;;;;11.60;8.10;;;358.80;2329.60;;;;;;4995714;28;20034;-84
2021/05/30 04:00:47;;;;;;;12.15;7.85;;;358.60;2329.60;;;;;;4995207;28;20022;-84
2021/05/30 04:03:13;;;;;;;12.75;7.53;;;358.70;2329.60;;;;;;4996003;28;20042;-83
2021/05/30 04:05:42;;;;;;;13.73;6.85;;;358.50;2329.60;;;;;;5007978;28;20056;-84
2021/05/30 04:08:14;;;;;;;14.30;6.70;;;333.70;2329.60;;;;;;5016019;28;20026;-83
2021/05/30 04:11:03;;;;;;;9.35;7.15;;;333.70;2329.60;;;;;;4998132;28;20030;-83
2021/05/30 04:13:32;;;;;;;14.07;7.00;;;358.50;2329.60;;;;;;4995370;28;20031;-83
2021/05/30 04:16:01;;;;;;;10.23;7.32;;;358.60;2329.60;;;;;;4994977;28;20037;-83
2021/05/30 04:18:27;;;;;;;12.70;8.75;;;358.70;2329.60;;;;;;4994872;28;20041;-84
2021/05/30 04:20:53;;;;;;;13.05;9.00;;;358.80;2329.60;;;;;;4995150;28;20026;-83
2021/05/30 04:23:19;;;;;;;13.43;7.65;;;358.80;2329.60;;;;;;4994768;28;20061;-84
2021/05/30 04:25:50;;;;;;;12.45;7.57;;;358.70;2329.60;;;;;;5010602;28;20034;-84
2021/05/30 04:28:19;;;;;;;10.85;7.95;;;358.80;2329.60;;;;;;4993565;28;20081;-84
2021/05/30 04:30:48;;;;;;;8.30;6.15;;;358.70;2329.60;;;;;;4994711;28;20493;-84
2021/05/30 04:33:14;;;;;;;10.10;5.97;;;358.90;2329.60;;;;;;4994882;28;20485;-84
2021/05/30 04:35:40;;;;;;;9.73;5.85;;;358.90;2329.60;;;;;;4994775;28;20054;-83
2021/05/30 04:38:06;;;;;;;8.52;6.53;;;359.00;2329.60;;;;;;4978527;28;20034;-83
2021/05/30 04:40:32;;;;;;;13.63;7.35;;;359.00;2329.60;;;;;;4994941;28;20446;-83
2021/05/30 04:42:58;;;;;;;10.55;6.45;;;359.00;2329.60;;;;;;4994429;28;20022;-85
2021/05/30 04:45:25;;;;;;;9.07;6.53;;;359.00;2329.60;;;;;;4994674;28;20035;-84
2021/05/30 04:47:51;;;;;;;12.00;8.65;;;359.00;2329.60;;;;;;4994483;28;20034;-84
2021/05/30 04:50:17;;;;;;;14.10;7.80;;;359.00;2329.60;;;;;;4994262;28;20489;-84
2021/05/30 04:52:43;;;;;;;12.52;6.90;;;359.00;2329.60;;;;;;4994452;28;20065;-84
2021/05/30 04:55:13;;;;;;;9.75;5.72;;;358.80;2329.60;;;;;;4994688;28;20039;-84
2021/05/30 04:57:45;;;;;;;11.02;6.45;;;358.90;2329.60;;;;;;4994262;28;20208;-83
2021/05/30 05:00:12;;;;;;;11.20;6.00;;;358.90;2329.60;;;;;;4994423;28;20064;-84
2021/05/30 05:02:39;;;;;;;8.98;6.28;;;359.00;2329.60;;;;;;4994354;28;20033;-85
2021/05/30 05:05:06;;;;;;;11.30;7.22;;;359.10;2329.60;;;;;;4994005;28;20033;-85
2021/05/30 05:07:32;;;;;;;9.55;6.72;;;359.20;2329.60;;;;;;4994258;28;20085;-85
2021/05/30 05:09:58;;;;;;;8.88;4.97;;;359.20;2329.60;;;;;;4994342;28;20429;-84
2021/05/30 05:12:25;;;;;;;7.30;4.47;;;359.30;2329.60;;;;;;4994005;28;20026;-84
2021/05/30 05:14:51;;;;;;;11.32;5.05;;;384.00;2329.60;;;;;;4994001;28;20481;-83
2021/05/30 05:17:17;;;;;;;9.38;5.22;;;359.30;2329.60;;;;;;4994159;28;20037;-83
2021/05/30 05:19:45;;;;;;;8.10;5.65;;;384.00;2329.60;;;;;;4994987;28;20030;-83
2021/05/30 05:22:11;;;;;;;9.40;5.50;;;384.20;2329.60;;;;;;4995196;28;20030;-83
2021/05/30 05:24:37;;;;;;;16.23;6.85;;;384.30;2329.60;;;;;;4993521;28;20533;-83
2021/05/30 05:27:03;;;;;;;8.02;5.70;;;384.40;2329.60;;;;;;4993776;28;20052;-83
2021/05/30 05:29:29;;;;;;;8.65;4.40;;;384.40;2329.60;;;;;;4995198;28;20084;-84
2021/05/30 05:31:55;;;;;;;5.63;3.83;;;384.60;2329.60;;;;;;4993780;28;20026;-83
2021/05/30 05:34:21;;;;;;;5.72;4.15;;;384.70;2329.60;;;;;;4993937;28;20088;-83
2021/05/30 05:36:47;;;;;;;6.88;5.00;;;384.70;2329.60;;;;;;4993847;28;20034;-82
2021/05/30 05:39:12;;;;;;;5.57;3.65;;;409.70;2355.20;;;;;;4993426;28;20092;-83
2021/05/30 05:41:38;;;;;;;7.00;4.20;;;384.80;2329.60;;;;;;4993768;28;20057;-83
2021/05/30 05:44:04;;;;;;;11.20;4.30;;;384.90;2329.60;;;;;;4993768;28;20030;-82
2021/05/30 05:46:30;;;;;;;9.85;4.10;;;409.70;2355.20;;;;;;4993361;28;20026;-84
2021/05/30 05:48:56;;;;;;;7.55;3.95;;;409.70;2355.20;;;;;;4994649;28;20030;-82
2021/05/30 05:51:22;;;;;;;8.65;4.00;;;409.80;2355.20;;;;;;4993585;28;20041;-84
2021/05/30 05:53:48;;;;;;;5.03;3.72;;;409.90;2355.20;;;;;;4993356;28;20077;-84
2021/05/30 05:56:14;;;;;;;6.90;3.95;;;410.00;2355.20;;;;;;4993204;28;20466;-82
2021/05/30 05:58:40;;;;;;;5.80;3.95;;;410.00;2355.20;;;;;;4993198;28;20050;-82
2021/05/30 06:01:09;;;;;;;6.40;4.05;;;410.20;2355.20;;;;;;5009470;28;20036;-83
2021/05/30 06:03:35;;;;;;;6.25;4.22;;;410.20;2355.20;;;;;;4993432;28;20022;-82
2021/05/30 06:06:03;;;;;;;8.93;4.05;;;410.10;2355.20;;;;;;4993439;28;20117;-82
2021/05/30 06:08:29;;;;;;;7.30;3.97;;;410.20;2355.20;;;;;;4992972;28;20030;-84
2021/05/30 06:10:56;;;;;;;8.65;4.50;;;410.40;2355.20;;;;;;4994578;28;20100;-83
2021/05/30 06:13:22;;;;;;;7.90;3.90;;;410.30;2355.20;;;;;;4993255;28;20030;-82
2021/05/30 06:15:49;;;;;;;6.95;3.90;;;410.40;2355.20;;;;;;5009249;28;20026;-83
2021/05/30 06:18:16;;;;;;;11.02;4.53;;;410.40;2355.20;;;;;;4994755;28;20034;-82
2021/05/30 06:20:44;;;;;;;8.38;3.70;;;410.30;2355.20;;;;;;4992844;28;20027;-82
2021/05/30 06:23:11;;;;;;;5.40;3.97;;;410.30;2355.20;;;;;;5009457;28;20030;-81
2021/05/30 06:25:37;;;;;;;8.02;4.07;;;410.40;2355.20;;;;;;4994431;28;20102;-81
2021/05/30 06:28:03;;;;;;;5.90;4.20;;;435.60;2355.20;;;;;;4992704;28;20039;-83
2021/05/30 06:30:36;;;;;;;5.38;3.47;;;410.10;2355.20;;;;;;4993157;28;20081;-83
2021/05/30 06:33:03;;;;;;;5.68;3.97;;;410.30;2355.20;;;;;;4994657;28;20158;-80
2021/05/30 06:35:31;;;;;;;7.45;4.20;;;410.40;2355.20;;;;;;4992764;28;20421;-83
2021/05/30 06:37:57;;;;;;;5.25;3.70;;;410.30;2355.20;;;;;;4993159;28;20034;-82
2021/05/30 06:40:23;;;;;;;7.75;4.28;;;410.40;2355.20;;;;;;4992916;28;20034;-83
2021/05/30 06:42:49;;;;;;;7.00;4.07;;;410.20;2355.20;;;;;;4994051;28;20037;-82
2021/05/30 06:45:16;;;;;;;5.72;4.15;;;410.50;2355.20;;;;;;4992932;28;20026;-83
2021/05/30 06:47:42;;;;;;;11.02;3.90;;;410.40;2355.20;;;;;;4992846;28;20045;-84
2021/05/30 06:50:08;;;;;;;6.15;4.63;;;410.50;2355.20;;;;;;4993716;28;20085;-83
2021/05/30 06:52:34;;;;;;;6.07;3.95;;;410.50;2355.20;;;;;;4996353;28;20022;-82
2021/05/30 06:55:00;;;;;;;6.20;4.20;;;410.40;2355.20;;;;;;4996985;28;20121;-83
2021/05/30 06:57:26;;;;;;;6.55;4.20;;;410.40;2355.20;;;;;;4996313;28;20117;-83
2021/05/30 06:59:52;;;;;;;7.35;4.32;;;410.50;2355.20;;;;;;5013203;28;20030;-82
2021/05/30 07:02:19;;;;;;;6.80;4.38;;;410.50;2355.20;;;;;;4996680;28;20093;-84
2021/05/30 07:04:45;;;;;;;8.95;4.47;;;435.20;2355.20;;;;;;4996526;28;20037;-81
2021/05/30 07:07:11;;;;;;;7.35;4.68;;;435.20;2355.20;;;;;;4996299;28;20125;-83
2021/05/30 07:09:37;;;;;;;9.75;4.50;;;435.20;2355.20;;;;;;4996109;28;20041;-83
2021/05/30 07:12:05;;;;;;;5.53;4.18;;;435.20;2355.20;;;;;;4996209;28;20437;-82
2021/05/30 07:14:31;;;;;;;5.20;4.10;;;435.30;2355.20;;;;;;4996524;28;20469;-82
2021/05/30 07:16:57;;;;;;;5.93;4.10;;;435.20;2355.20;;;;;;4997243;28;20061;-83
2021/05/30 07:19:23;;;;;;;7.22;4.53;;;435.30;2355.20;;;;;;4996430;28;20050;-87
2021/05/30 07:21:50;;;;;;;8.88;5.25;;;435.30;2355.20;;;;;;4997948;28;20026;-83
2021/05/30 07:24:16;;;;;;;11.73;7.95;;;435.20;2355.20;;;;;;4996657;28;20030;-84
2021/05/30 07:26:42;;;;;;;9.63;4.95;;;410.50;2355.20;;;;;;4997354;28;20035;-82
2021/05/30 07:29:08;;;;;;;8.57;4.90;;;410.50;2355.20;;;;;;4996382;28;20038;-83
2021/05/30 07:31:34;;;;;;;7.00;5.93;;;410.40;2355.20;;;;;;4995944;28;20033;-83
2021/05/30 07:34:01;;;;;;;7.25;4.97;;;410.40;2355.20;;;;;;4996167;28;20022;-83
2021/05/30 07:36:28;;;;;;;5.75;4.57;;;410.30;2355.20;;;;;;4995997;28;20027;-79
2021/05/30 07:38:56;;;;;;;11.68;6.35;;;410.30;2355.20;;;;;;4995743;28;20386;-80
2021/05/30 07:41:22;;;;;;;6.35;4.78;;;410.30;2355.20;;;;;;4996033;28;20474;-80
2021/05/30 07:43:48;;;;;;;9.20;7.10;;;410.30;2355.20;;;;;;4996034;28;20023;-82
2021/05/30 07:46:14;;;;;;;18.92;14.38;;;410.30;2355.20;;;;;;4995594;28;20586;-80
2021/05/30 07:48:40;;;;;;;18.92;11.68;;;410.30;2355.20;;;;;;4995877;28;20035;-81
2021/05/30 07:51:06;;;;;;;8.38;5.20;;;410.40;2355.20;;;;;;4995882;28;20027;-80
2021/05/30 07:53:33;;;;;;;7.38;4.60;;;410.40;2355.20;;;;;;4995629;28;20121;-82
2021/05/30 07:55:59;;;;;;;7.78;5.07;;;410.40;2355.20;;;;;;4995510;28;20030;-79
2021/05/30 07:58:25;;;;;;;6.75;4.57;;;410.40;2355.20;;;;;;4995070;28;20069;-80
2021/05/30 08:00:51;;;;;;;8.02;4.22;;;410.40;2355.20;;;;;;4995658;28;20026;-81
2021/05/30 08:03:17;;;;;;;6.22;4.22;;;410.40;2355.20;;;;;;4994423;28;20030;-81
2021/05/30 08:05:44;;;;;;;7.75;3.90;;;410.40;2355.20;;;;;;4995283;28;20026;-84
2021/05/30 08:08:10;;;;;;;6.25;3.60;;;410.30;2355.20;;;;;;4995438;28;20066;-79
2021/05/30 08:10:36;;;;;;;7.00;4.45;;;435.20;2355.20;;;;;;4995458;28;20031;-80
2021/05/30 08:13:02;;;;;;;6.50;4.13;;;410.30;2355.20;;;;;;4995139;28;20073;-80
2021/05/30 08:15:28;;;;;;;5.43;4.22;;;410.30;2355.20;;;;;;4996928;28;20034;-82
2021/05/30 08:17:54;;;;;;;7.38;4.55;;;410.10;2355.20;;;;;;4995334;28;20041;-82
2021/05/30 08:20:23;;;;;;;7.18;4.75;;;410.10;2355.20;;;;;;4995043;28;20081;-82
2021/05/30 08:22:49;;;;;;;8.70;4.07;;;410.20;2355.20;;;;;;4995281;28;20052;-82
2021/05/30 08:25:16;;;;;;;7.88;4.28;;;410.20;2355.20;;;;;;4995267;28;20030;-78
2021/05/30 08:27:42;;;;;;;10.75;4.53;;;410.10;2355.20;;;;;;4994758;28;20120;-78
2021/05/30 08:30:10;;;;;;;6.55;4.35;;;410.20;2355.20;;;;;;4995080;28;20030;-75
2021/05/30 08:32:36;;;;;;;6.97;4.20;;;410.20;2355.20;;;;;;4995077;28;20104;-75
2021/05/30 08:35:04;;;;;;;6.25;3.70;;;410.30;2355.20;;;;;;4995722;28;20501;-79
2021/05/30 08:37:30;;;;;;;5.38;4.55;;;410.20;2355.20;;;;;;4994987;28;20035;-78
2021/05/30 08:39:56;;;;;;;9.75;5.30;;;410.30;2355.20;;;;;;5011470;28;20026;-74
2021/05/30 08:42:22;;;;;;;9.73;4.80;;;410.20;2355.20;;;;;;4994550;28;20030;-75
2021/05/30 08:44:53;;;;;;;7.30;4.80;;;410.30;2355.20;;;;;;4994828;28;20158;-76
2021/05/30 08:47:22;;;;;;;6.28;4.32;;;410.30;2355.20;;;;;;4994656;28;20026;-76
2021/05/30 08:49:49;;;;;;;8.10;5.30;;;410.20;2355.20;;;;;;4994635;28;20038;-77
2021/05/30 08:52:16;;;;;;;9.32;4.95;;;410.20;2355.20;;;;;;4994685;28;20036;-76
2021/05/30 08:54:42;;;;;;;5.97;4.60;;;410.20;2355.20;;;;;;4994370;28;20030;-80
2021/05/30 08:57:08;;;;;;;6.70;4.80;;;410.10;2355.20;;;;;;4994247;28;20026;-79
2021/05/30 08:59:37;;;;;;;6.22;4.50;;;410.20;2355.20;;;;;;4987876;28;20051;-78
2021/05/30 09:02:11;;;;;;;7.47;5.57;;;410.20;2355.20;;;;;;4991883;28;20032;-77
2021/05/30 09:04:42;;;;;;;6.30;4.22;;;410.20;2355.20;;;;;;4993806;28;20034;-77
2021/05/30 09:07:10;;;;;;;6.10;4.20;;;410.20;2355.20;;;;;;4992286;28;20113;-75
2021/05/30 09:09:46;;;;;;;6.65;4.50;;;410.30;2355.20;;;;;;4992846;28;20030;-78
2021/05/30 09:12:34;;;;;;;5.20;3.85;;;410.20;2355.20;;;;;;4989888;28;20031;-80
2021/05/30 09:15:03;;;;;;;5.55;3.58;;;410.10;2355.20;;;;;;4991195;28;20026;-77
2021/05/30 09:17:31;;;;;;;6.15;4.00;;;410.00;2355.20;;;;;;4993379;28;20034;-78
2021/05/30 09:19:58;;;;;;;8.85;4.05;;;410.00;2355.20;;;;;;4992406;28;20466;-77
2021/05/30 09:22:28;;;;;;;9.85;5.30;;;410.00;2355.20;;;;;;4992297;28;20414;-78
2021/05/30 09:25:04;;;;;;;9.85;6.15;;;410.00;2355.20;;;;;;5004090;28;20026;-77
2021/05/30 09:27:30;;;;;;;8.88;7.25;;;410.00;2355.20;;;;;;4983348;28;20061;-76
2021/05/30 09:30:14;;;;;;;10.77;6.78;;;410.00;2355.20;;;;;;4987490;28;20557;-80
2021/05/30 09:33:04;;;;;;;11.52;6.95;;;410.10;2355.20;;;;;;5002187;28;20022;-77
2021/05/30 09:35:44;;;;;;;13.38;6.68;;;410.10;2355.20;;;;;;4988176;28;20423;-74
2021/05/30 09:38:19;;;;;;;13.85;7.15;;;410.20;2355.20;;;;;;4987013;28;20069;-77
2021/05/30 09:40:51;;;;;;;11.10;7.10;;;410.20;2355.20;;;;;;4983803;28;20371;-77
2021/05/30 09:43:29;;;;;;;9.68;5.97;;;410.20;2355.20;;;;;;4993146;28;20482;-77
2021/05/30 09:46:01;;;;;;;13.40;7.47;;;410.20;2355.20;;;;;;4993101;28;20029;-78
2021/05/30 09:48:27;;;;;;;8.13;5.57;;;410.10;2355.20;;;;;;4992947;28;20492;-75
2021/05/30 09:51:04;;;;;;;8.48;5.18;;;410.10;2355.20;;;;;;4985098;28;20035;-75
2021/05/30 09:53:32;;;;;;;8.65;5.88;;;410.10;2355.20;;;;;;4989997;28;20027;-76
2021/05/30 09:55:58;;;;;;;7.28;5.55;;;410.20;2355.20;;;;;;4987044;28;20030;-76
2021/05/30 09:58:24;;;;;;;7.38;5.18;;;410.00;2355.20;;;;;;4977316;28;20050;-76
2021/05/30 10:00:58;;;;;;;7.65;5.88;;;410.10;2355.20;;;;;;4991754;28;20076;-78
2021/05/30 10:03:24;;;;;;;8.95;5.85;;;410.00;2355.20;;;;;;4978850;28;20157;-77
2021/05/30 10:05:50;;;;;;;10.10;5.38;;;410.00;2355.20;;;;;;4980368;28;20355;-75
2021/05/30 10:08:17;;;;;;;9.70;5.78;;;409.90;2355.20;;;;;;4985034;28;20084;-77
2021/05/30 10:10:45;;;;;;;6.78;5.20;;;409.90;2355.20;;;;;;4987297;28;20386;-75
2021/05/30 10:13:11;;;;;;;7.63;5.57;;;409.70;2355.20;;;;;;4994538;28;20026;-74
2021/05/30 10:15:38;;;;;;;10.05;6.10;;;409.70;2355.20;;;;;;4993270;28;20026;-83
2021/05/30 10:18:13;;;;;;;9.95;6.50;;;409.60;2355.20;;;;;;4993215;28;20450;-76
2021/05/30 10:20:40;;;;;;;10.95;6.40;;;409.60;2355.20;;;;;;4992897;28;20033;-78
2021/05/30 10:23:08;;;;;;;14.13;7.15;;;384.90;2329.60;;;;;;4994670;28;20109;-78
2021/05/30 10:25:36;;;;;;;14.32;7.43;;;384.90;2329.60;;;;;;4992135;28;20057;-80
2021/05/30 10:28:15;;;;;;;11.27;7.07;;;384.70;2329.60;;;;;;4993028;28;20030;-80
2021/05/30 10:30:47;;;;;;;9.77;6.53;;;384.70;2329.60;;;;;;4992118;28;20069;-77
2021/05/30 10:33:16;;;;;;;14.02;8.23;;;384.60;2329.60;;;;;;4991270;28;20041;-77
2021/05/30 10:35:44;;;;;;;9.65;7.47;;;384.50;2329.60;;;;;;4992132;28;20378;-76
2021/05/30 10:38:11;;;;;;;9.52;6.47;;;384.50;2329.60;;;;;;4992154;28;20041;-75
2021/05/30 10:40:42;;;;;;;9.23;6.50;;;384.40;2329.60;;;;;;4991997;28;20030;-77
2021/05/30 10:43:09;;;;;;;10.00;6.05;;;384.30;2329.60;;;;;;4992244;28;20033;-79
2021/05/30 10:45:41;;;;;;;7.95;6.53;;;384.30;2329.60;;;;;;4992084;28;20078;-76
2021/05/30 10:48:08;;;;;;;10.77;6.22;;;384.20;2329.60;;;;;;4991776;28;20081;-79
2021/05/30 10:50:40;;;;;;;8.23;5.95;;;384.30;2329.60;;;;;;4990391;28;20029;-76
2021/05/30 10:53:43;;;;;;;12.10;6.90;;;384.10;2329.60;;;;;;5010033;28;20061;-79
2021/05/30 10:56:37;;;;;;;11.25;6.88;;;384.10;2329.60;;;;;;4907285;29;20044;-77
2021/05/30 10:59:03;;;;;;;7.43;4.68;;;384.10;2329.60;;;;;;4972992;28;20487;-84
2021/05/30 11:01:39;;;;;;;8.70;5.20;;;384.00;2329.60;;;;;;4971838;28;20482;-83
2021/05/30 11:04:30;;;;;;;8.45;4.57;;;384.00;2329.60;;;;;;4973227;28;20027;-83
2021/05/30 11:07:08;;;;;;;8.52;5.60;;;384.00;2329.60;;;;;;4972472;28;20038;-79
2021/05/30 11:10:11;;;;;;;8.25;5.05;;;384.00;2329.60;;;;;;4972481;28;20038;-81
2021/05/30 11:12:55;;;;;;;7.65;5.30;;;384.00;2329.60;;;;;;4973289;28;20019;-82
2021/05/30 11:15:23;;;;;;;8.95;5.55;;;359.20;2329.60;;;;;;4976635;28;20039;-82
2021/05/30 11:18:11;;;;;;;6.75;4.93;;;359.10;2329.60;;;;;;4972754;28;20429;-82
2021/05/30 11:20:45;;;;;;;7.53;5.13;;;359.20;2329.60;;;;;;4972742;28;20426;-83
2021/05/30 11:23:15;;;;;;;8.05;6.05;;;359.20;2329.60;;;;;;4972247;28;20391;-84
2021/05/30 11:25:48;;;;;;;8.60;5.25;;;359.20;2329.60;;;;;;4972334;28;20030;-81
2021/05/30 11:28:17;;;;;;;6.65;4.78;;;359.30;2329.60;;;;;;4971955;28;20479;-77
2021/05/30 11:30:43;;;;;;;7.00;4.93;;;359.20;2329.60;;;;;;4971882;28;20035;-77
2021/05/30 11:33:13;;;;;;;7.57;5.97;;;359.20;2329.60;;;;;;4972190;28;20471;-78
2021/05/30 11:35:42;;;;;;;7.95;5.10;;;359.20;2329.60;;;;;;4972027;28;20046;-78
2021/05/30 11:38:09;;;;;;;8.65;5.32;;;359.10;2329.60;;;;;;4974854;28;20038;-77
2021/05/30 11:40:36;;;;;;;8.15;5.43;;;358.90;2329.60;;;;;;4975675;28;20534;-80
2021/05/30 11:43:31;;;;;;;10.48;8.43;;;359.00;2329.60;;;;;;4975349;28;20157;-78
2021/05/30 11:45:57;;;;;;;11.45;6.30;;;359.10;2329.60;;;;;;5004445;28;20037;-81
2021/05/30 11:48:26;;;;;;;7.65;5.68;;;359.20;2329.60;;;;;;5014523;28;20385;-79
2021/05/30 11:50:53;;;;;;;9.40;6.30;;;359.10;2329.60;;;;;;5014277;28;20030;-78
2021/05/30 11:53:30;;;;;;;8.63;6.22;;;359.20;2329.60;;;;;;5014495;28;20034;-75
2021/05/30 11:55:58;;;;;;;9.40;7.95;;;359.20;2329.60;;;;;;5030910;28;20034;-74
2021/05/30 11:58:25;;;;;;;8.95;6.32;;;359.20;2329.60;;;;;;5013863;28;20050;-77
2021/05/30 12:01:47;;;;;;;9.13;6.97;;;359.10;2329.60;;;;;;5014315;28;20492;-77
2021/05/30 12:03:49;;;;;;;9.50;7.88;;;359.10;2329.60;;;;;;5001136;28;20133;-75
2021/05/30 12:06:15;;;;;;;11.52;8.65;;;359.30;2329.60;;;;;;5014289;28;20026;-78
2021/05/30 12:08:41;;;;;;;12.55;8.20;;;359.30;2329.60;;;;;;5014153;28;20041;-74
2021/05/30 12:11:11;;;;;;;10.07;7.68;;;384.00;2329.60;;;;;;5013950;28;20034;-72
2021/05/30 12:13:38;;;;;;;9.75;6.78;;;384.00;2329.60;;;;;;5014104;28;20077;-75
2021/05/30 12:16:19;;;;;;;8.45;7.00;;;359.30;2329.60;;;;;;4994095;28;20038;-79
2021/05/30 12:19:14;;;;;;;6.95;5.53;;;359.30;2329.60;;;;;;4975945;28;20347;-77
2021/05/30 12:21:45;;;;;;;7.88;5.93;;;384.00;2329.60;;;;;;4967184;28;20097;-73
2021/05/30 12:24:14;;;;;;;7.40;5.07;;;359.10;2329.60;;;;;;4974877;28;20065;-75
2021/05/30 12:26:46;;;;;;;7.65;5.00;;;359.00;2329.60;;;;;;4974720;28;20026;-76